createdAt,value
2022-11-17T00:08:49.251Z,11.03
2022-11-17T00:19:10.414Z,10.61
2022-11-17T00:29:12.885Z,11.15
2022-11-17T00:39:17.535Z,11.28
2022-11-17T00:49:21.522Z,11.35
2022-11-17T00:59:25.337Z,11.47
2022-11-17T01:09:27.916Z,11.22
2022-11-17T01:19:31.753Z,11.48
2022-11-17T01:29:34.325Z,11.44
2022-11-17T01:39:38.169Z,11.31
2022-11-17T01:49:41.005Z,11.39
2022-11-17T01:59:47.326Z,11.29
2022-11-17T02:09:50.490Z,11.45
2022-11-17T02:19:58.983Z,11.37
2022-11-17T02:30:04.844Z,11.55
2022-11-17T02:40:10.267Z,11.48
2022-11-17T02:50:14.895Z,11.58
2022-11-17T03:00:19.989Z,11.48
2022-11-17T03:10:27.229Z,11.47
2022-11-17T03:20:34.679Z,11.53
2022-11-17T03:30:39.015Z,11.63
2022-11-17T03:40:45.839Z,11.61
2022-11-17T03:50:52.428Z,11.58
2022-11-17T04:00:57.249Z,11.46
2022-11-17T04:11:17.057Z,11.53
2022-11-17T04:21:20.844Z,11.61
2022-11-17T04:31:24.406Z,11.60
2022-11-17T04:41:46.628Z,11.83
2022-11-17T04:51:49.659Z,11.78
2022-11-17T05:01:53.524Z,11.52
2022-11-17T05:12:13.614Z,11.45
2022-11-17T05:22:36.174Z,11.71
2022-11-17T05:32:38.656Z,11.71
2022-11-17T05:42:42.446Z,11.38
2022-11-17T05:52:44.977Z,11.47
2022-11-17T06:02:51.038Z,11.37
2022-11-17T06:12:53.559Z,11.68
2022-11-17T06:22:58.717Z,11.59
2022-11-17T06:33:01.952Z,11.66
2022-11-17T06:43:08.553Z,11.74
2022-11-17T06:53:12.046Z,11.77
2022-11-17T07:03:15.967Z,11.64
2022-11-17T07:13:18.550Z,11.50
2022-11-17T07:23:23.062Z,11.44
2022-11-17T07:33:25.574Z,11.40
2022-11-17T07:43:29.651Z,11.43
2022-11-17T07:53:33.424Z,11.90
2022-11-17T08:03:37.438Z,11.63
2022-11-17T08:13:40.515Z,11.71
2022-11-17T08:23:44.365Z,11.66
2022-11-17T08:33:46.912Z,11.82
2022-11-17T08:43:50.834Z,12.04
2022-11-17T08:53:53.315Z,12.12
2022-11-17T09:03:57.276Z,12.28
2022-11-17T09:13:59.922Z,12.25
2022-11-17T09:24:03.836Z,12.32
2022-11-17T09:34:06.535Z,12.24
2022-11-17T09:44:27.302Z,12.26
2022-11-17T09:54:31.475Z,12.15
2022-11-17T10:04:35.326Z,12.19
2022-11-17T10:14:40.699Z,12.92
2022-11-17T10:24:46.835Z,12.71
2022-11-17T10:34:49.336Z,12.91
2022-11-17T10:44:55.013Z,13.24
